createdAt,value
2017-09-11T00:00:55.823Z,99.90
2017-09-11T00:03:24.112Z,99.90
2017-09-11T00:05:51.621Z,99.90
2017-09-11T00:08:19.148Z,99.90
2017-09-11T00:10:46.665Z,99.90
2017-09-11T00:13:14.186Z,99.90
2017-09-11T00:15:41.694Z,99.90
2017-09-11T00:18:09.985Z,99.90
2017-09-11T00:20:37.488Z,99.90
2017-09-11T00:23:05.016Z,99.90
2017-09-11T00:25:32.521Z,99.90
2017-09-11T00:28:00.048Z,99.90
2017-09-11T00:30:27.540Z,99.90
2017-09-11T00:32:55.064Z,99.90
2017-09-11T00:35:22.569Z,99.90
2017-09-11T00:37:50.097Z,99.90
2017-09-11T00:40:17.596Z,99.90
2017-09-11T00:42:45.116Z,99.90
2017-09-11T00:45:12.641Z,99.90
2017-09-11T00:47:40.933Z,99.90
2017-09-11T00:50:08.438Z,99.90
2017-09-11T00:52:35.977Z,99.90
2017-09-11T00:55:03.473Z,99.90
2017-09-11T00:57:30.996Z,99.90
2017-09-11T00:59:58.528Z,99.90
2017-09-11T01:02:26.068Z,99.90
2017-09-11T01:04:53.583Z,99.90
2017-09-11T01:07:21.113Z,99.90
2017-09-11T01:09:48.625Z,99.90
2017-09-11T01:12:16.157Z,99.90
2017-09-11T01:14:43.644Z,99.90
2017-09-11T01:17:11.169Z,99.90
2017-09-11T01:19:38.672Z,99.90
2017-09-11T01:22:07.064Z,99.90
2017-09-11T01:24:35.337Z,99.90
2017-09-11T01:27:02.852Z,99.90
2017-09-11T01:29:30.353Z,99.90
2017-09-11T01:31:58.654Z,99.90
2017-09-11T01:34:26.157Z,99.90
2017-09-11T01:36:53.681Z,99.90
2017-09-11T01:39:21.212Z,99.90
2017-09-11T01:41:49.488Z,99.90
2017-09-11T01:44:17.752Z,99.90
2017-09-11T01:46:45.280Z,99.90
2017-09-11T01:49:12.788Z,99.90
2017-09-11T01:51:40.313Z,99.90
2017-09-11T01:54:07.813Z,99.90
2017-09-11T01:56:36.107Z,99.90
2017-09-11T01:59:03.622Z,99.90
2017-09-11T02:01:31.150Z,99.90
2017-09-11T02:03:58.652Z,99.90
2017-09-11T02:06:26.174Z,99.90
2017-09-11T02:08:53.693Z,99.90
2017-09-11T02:11:21.984Z,99.90
2017-09-11T02:13:49.488Z,99.90
2017-09-11T02:16:17.008Z,99.90
2017-09-11T02:18:44.545Z,99.90
2017-09-11T02:21:12.837Z,99.90
2017-09-11T02:23:40.336Z,99.90
2017-09-11T02:26:53.227Z,99.90
2017-09-11T02:29:20.732Z,99.90
2017-09-11T02:31:48.253Z,99.90
2017-09-11T02:34:15.764Z,99.90
2017-09-11T02:36:43.284Z,99.90
2017-09-11T02:39:10.798Z,99.90
2017-09-11T02:41:39.088Z,99.90
2017-09-11T02:44:06.598Z,99.90
2017-09-11T02:46:34.122Z,99.90
2017-09-11T02:49:01.624Z,99.90
2017-09-11T02:51:29.148Z,99.90
2017-09-11T02:53:56.657Z,99.90
2017-09-11T02:56:24.180Z,99.90
2017-09-11T02:58:51.682Z,99.90
2017-09-11T03:01:19.208Z,99.90
2017-09-11T03:03:46.716Z,99.90
2017-09-11T03:06:15.010Z,99.90
2017-09-11T03:08:42.512Z,99.90
2017-09-11T03:11:10.030Z,99.90
2017-09-11T03:13:37.535Z,99.90
2017-09-11T03:16:05.057Z,99.90
2017-09-11T03:18:32.557Z,99.90
2017-09-11T03:21:00.071Z,99.90
2017-09-11T03:23:27.564Z,99.90
2017-09-11T03:25:55.078Z,99.90
2017-09-11T03:28:23.344Z,99.90
2017-09-11T03:30:51.644Z,99.90
2017-09-11T03:33:19.152Z,99.90
2017-09-11T03:35:46.672Z,99.90
2017-09-11T03:38:14.177Z,99.90
2017-09-11T03:40:41.699Z,99.90
2017-09-11T03:43:09.208Z,99.90
2017-09-11T03:45:36.732Z,99.90
2017-09-11T03:48:04.450Z,99.90
2017-09-11T03:50:32.732Z,99.90
2017-09-11T03:53:00.221Z,99.90
2017-09-11T03:55:27.739Z,99.90
2017-09-11T03:57:56.004Z,99.90
2017-09-11T04:00:23.516Z,99.90
2017-09-11T04:02:51.012Z,99.90
2017-09-11T04:05:18.533Z,99.90
2017-09-11T04:07:46.033Z,99.90
2017-09-11T04:10:13.552Z,99.90
2017-09-11T04:12:41.821Z,99.90
2017-09-11T04:15:09.342Z,99.90
2017-09-11T04:17:38.419Z,99.90
2017-09-11T04:20:05.941Z,99.90
2017-09-11T04:22:33.440Z,99.90
2017-09-11T04:25:00.976Z,99.90
2017-09-11T04:27:28.477Z,99.90
2017-09-11T04:29:56.789Z,99.90
2017-09-11T04:32:24.335Z,99.90
2017-09-11T04:34:51.855Z,99.90
2017-09-11T04:37:19.376Z,99.90
2017-09-11T04:39:46.918Z,99.90
2017-09-11T04:42:14.428Z,99.90
2017-09-11T04:44:41.942Z,99.90
2017-09-11T04:47:10.056Z,99.90
2017-09-11T04:49:37.563Z,99.90
2017-09-11T04:52:06.165Z,99.90
2017-09-11T04:54:33.769Z,99.90
2017-09-11T04:57:01.313Z,99.90
2017-09-11T04:59:28.838Z,99.90
2017-09-11T05:01:56.377Z,99.90
2017-09-11T05:04:24.685Z,99.90
2017-09-11T05:06:52.216Z,99.90
2017-09-11T05:09:20.569Z,99.90
2017-09-11T05:11:48.084Z,99.90
2017-09-11T05:14:15.633Z,99.90
2017-09-11T05:16:43.161Z,99.90
2017-09-11T05:19:10.682Z,99.90
2017-09-11T05:21:38.201Z,99.90
2017-09-11T05:24:06.488Z,99.90
2017-09-11T05:26:34.092Z,99.90
2017-09-11T05:29:01.614Z,99.90
2017-09-11T05:31:29.158Z,99.90
2017-09-11T05:33:56.692Z,99.90
2017-09-11T05:36:24.208Z,99.90
2017-09-11T05:38:51.779Z,99.90
2017-09-11T05:41:19.410Z,99.90
2017-09-11T05:43:46.942Z,99.90
2017-09-11T05:46:14.573Z,99.90
2017-09-11T05:48:42.089Z,99.90
2017-09-11T05:51:09.649Z,99.90
2017-09-11T05:53:37.935Z,99.80
2017-09-11T05:56:05.490Z,99.80
2017-09-11T05:58:36.280Z,99.80
2017-09-11T06:01:03.817Z,99.90
2017-09-11T06:03:31.329Z,99.90
2017-09-11T06:06:00.995Z,99.60
2017-09-11T06:08:28.509Z,99.40
2017-09-11T06:10:56.801Z,99.40
2017-09-11T06:13:24.321Z,99.40
2017-09-11T06:15:51.848Z,99.50
2017-09-11T06:18:19.359Z,99.50
2017-09-11T06:20:46.891Z,99.80
2017-09-11T06:23:14.397Z,99.80
2017-09-11T06:25:41.936Z,99.90
2017-09-11T06:28:10.204Z,99.90
2017-09-11T06:30:37.721Z,99.90
2017-09-11T06:33:05.735Z,99.90
2017-09-11T06:35:33.284Z,99.90
2017-09-11T06:38:00.808Z,99.90
2017-09-11T06:40:28.508Z,99.90
2017-09-11T06:42:56.033Z,99.90
2017-09-11T06:45:23.552Z,99.90
2017-09-11T06:47:51.839Z,99.40
2017-09-11T06:50:20.126Z,99.20
2017-09-11T06:52:48.716Z,99.20
2017-09-11T06:55:16.232Z,99.00
2017-09-11T06:57:43.780Z,98.70
2017-09-11T07:00:11.338Z,98.00
2017-09-11T07:02:38.896Z,97.60
2017-09-11T07:05:06.413Z,97.80
2017-09-11T07:07:33.950Z,97.90
2017-09-11T07:10:03.068Z,98.40
2017-09-11T07:12:42.325Z,98.40
2017-09-11T07:15:09.843Z,98.40
2017-09-11T07:17:37.461Z,98.50
2017-09-11T07:20:04.974Z,98.70
2017-09-11T07:22:33.274Z,98.50
2017-09-11T07:25:01.567Z,98.50
2017-09-11T07:27:29.092Z,98.50
2017-09-11T07:29:57.381Z,97.90
2017-09-11T07:32:24.905Z,97.90
2017-09-11T07:34:52.417Z,98.00
2017-09-11T07:37:19.959Z,98.20
2017-09-11T07:39:47.493Z,98.40
2017-09-11T07:42:16.651Z,98.20
2017-09-11T07:44:44.185Z,98.20
2017-09-11T07:47:11.732Z,98.00
2017-09-11T07:49:39.255Z,97.90
2017-09-11T07:52:07.388Z,97.50
2017-09-11T07:54:34.910Z,96.90
2017-09-11T07:57:03.206Z,96.30
2017-09-11T07:59:30.743Z,96.30
2017-09-11T08:01:59.045Z,95.50
2017-09-11T08:04:26.580Z,95.50
2017-09-11T08:06:54.881Z,95.80
2017-09-11T08:09:22.430Z,95.50
2017-09-11T08:11:49.961Z,95.90
2017-09-11T08:14:17.492Z,96.10
2017-09-11T08:16:45.052Z,96.50
2017-09-11T08:19:12.589Z,96.10
2017-09-11T08:21:40.125Z,96.00
2017-09-11T08:24:08.425Z,96.70
2017-09-11T08:26:35.962Z,96.60
2017-09-11T08:29:04.254Z,96.80
2017-09-11T08:31:31.787Z,96.80
2017-09-11T08:34:00.080Z,96.80
2017-09-11T08:36:28.373Z,96.80
2017-09-11T08:38:55.883Z,96.70
2017-09-11T08:41:23.422Z,96.90
2017-09-11T08:43:50.925Z,96.70
2017-09-11T08:46:18.554Z,96.10
2017-09-11T08:48:46.077Z,96.70
2017-09-11T08:51:13.609Z,96.40
2017-09-11T08:53:41.136Z,96.20
2017-09-11T08:56:11.763Z,96.50
2017-09-11T08:58:39.265Z,96.30
2017-09-11T09:01:07.586Z,96.50
2017-09-11T09:03:35.097Z,96.40
2017-09-11T09:06:03.401Z,97.10
2017-09-11T09:08:30.926Z,97.30
2017-09-11T09:10:58.507Z,97.70
2017-09-11T09:13:26.852Z,97.70
2017-09-11T09:15:57.760Z,97.70
2017-09-11T09:18:25.288Z,97.70
2017-09-11T09:20:53.576Z,97.70
2017-09-11T09:23:21.258Z,97.60
2017-09-11T09:25:48.776Z,97.90
2017-09-11T09:28:17.085Z,97.20
2017-09-11T09:30:44.604Z,97.20
2017-09-11T09:33:12.155Z,97.30
2017-09-11T09:35:42.688Z,97.20
2017-09-11T09:38:10.286Z,96.90
2017-09-11T09:40:37.809Z,96.80
2017-09-11T09:43:05.389Z,96.60
2017-09-11T09:45:36.383Z,96.40
2017-09-11T09:48:03.940Z,96.70
2017-09-11T09:50:31.473Z,96.70
2017-09-11T09:52:59.195Z,96.60
2017-09-11T09:55:26.717Z,96.50
2017-09-11T09:57:54.857Z,96.40
2017-09-11T10:00:23.128Z,96.80
2017-09-11T10:02:51.467Z,97.00
2017-09-11T10:05:18.974Z,96.90
2017-09-11T10:07:47.254Z,96.90
2017-09-11T10:10:14.858Z,96.80
2017-09-11T10:12:42.394Z,96.70
2017-09-11T10:15:09.937Z,97.00
2017-09-11T10:17:38.245Z,95.70
2017-09-11T10:20:05.769Z,95.60
2017-09-11T10:22:34.120Z,96.30
2017-09-11T10:25:01.670Z,96.00
2017-09-11T10:27:29.193Z,96.10
2017-09-11T10:29:57.510Z,95.50
2017-09-11T10:32:25.033Z,95.50
2017-09-11T10:34:52.564Z,95.40
2017-09-11T10:37:20.069Z,95.30
2017-09-11T10:39:47.619Z,95.10
2017-09-11T10:42:15.145Z,94.80
2017-09-11T10:44:42.697Z,94.50
2017-09-11T10:47:11.006Z,94.30
2017-09-11T10:49:38.545Z,94.20
2017-09-11T10:52:06.278Z,94.00
2017-09-11T10:54:33.821Z,93.10
2017-09-11T10:57:01.348Z,93.20
2017-09-11T10:59:28.961Z,93.40
2017-09-11T11:01:56.605Z,93.70
2017-09-11T11:04:24.170Z,93.50
2017-09-11T11:06:51.710Z,93.30
2017-09-11T11:09:19.245Z,93.40
2017-09-11T11:11:46.814Z,93.80
2017-09-11T11:14:14.367Z,94.00
2017-09-11T11:16:41.962Z,93.60
2017-09-11T11:19:09.486Z,93.40
2017-09-11T11:21:37.051Z,94.30
2017-09-11T11:24:05.373Z,95.00
2017-09-11T11:26:32.983Z,95.10
2017-09-11T11:29:00.535Z,94.70
2017-09-11T11:31:28.873Z,94.50
2017-09-11T11:33:56.424Z,94.40
2017-09-11T11:36:23.983Z,94.30
2017-09-11T11:38:51.522Z,94.00
2017-09-11T11:41:19.114Z,93.90
2017-09-11T11:46:37.875Z,94.60
2017-09-11T11:49:05.393Z,92.90
2017-09-11T11:51:33.685Z,93.10
2017-09-11T11:54:01.222Z,93.10
2017-09-11T11:56:28.793Z,93.50
2017-09-11T11:58:57.097Z,94.10
2017-09-11T12:01:24.653Z,93.70
2017-09-11T12:03:52.168Z,93.60
2017-09-11T12:06:19.700Z,94.00
2017-09-11T12:08:47.464Z,94.50
2017-09-11T12:11:14.996Z,95.30
2017-09-11T12:13:42.522Z,97.50
2017-09-11T12:16:10.070Z,99.90
2017-09-11T12:18:37.585Z,99.90
2017-09-11T12:21:05.101Z,99.90
2017-09-11T12:23:32.606Z,99.90
2017-09-11T12:26:00.126Z,99.90
2017-09-11T12:28:27.699Z,99.90
2017-09-11T12:30:55.993Z,99.90
2017-09-11T12:33:23.484Z,99.90
2017-09-11T12:35:51.013Z,99.90
2017-09-11T12:38:18.518Z,99.90
2017-09-11T12:40:46.090Z,99.90
2017-09-11T12:43:13.605Z,99.90
2017-09-11T12:45:41.187Z,99.90
2017-09-11T12:48:08.793Z,99.90
2017-09-11T12:50:37.108Z,99.90
2017-09-11T12:53:04.645Z,99.90
2017-09-11T12:55:32.200Z,99.90
2017-09-11T12:57:59.734Z,99.90
2017-09-11T13:00:27.521Z,99.90
2017-09-11T13:02:55.827Z,99.90
2017-09-11T13:05:24.423Z,99.90
2017-09-11T13:07:51.959Z,99.90
2017-09-11T13:10:19.543Z,99.90
2017-09-11T13:12:47.081Z,99.90
2017-09-11T13:15:15.395Z,99.90
2017-09-11T13:17:42.919Z,99.90
2017-09-11T13:20:10.478Z,99.90
2017-09-11T13:22:38.255Z,99.90
2017-09-11T13:25:05.801Z,99.90
2017-09-11T13:27:33.345Z,99.90
2017-09-11T13:30:00.903Z,99.90
2017-09-11T13:32:29.201Z,99.90
2017-09-11T13:34:56.733Z,99.90
2017-09-11T13:37:25.090Z,99.90
2017-09-11T13:39:52.646Z,99.90
2017-09-11T13:42:20.254Z,99.90
2017-09-11T13:44:47.785Z,99.90
2017-09-11T13:47:15.380Z,99.90
2017-09-11T13:49:43.011Z,99.90
2017-09-11T13:52:10.586Z,99.90
2017-09-11T13:54:38.917Z,99.90
2017-09-11T13:57:06.484Z,99.90
2017-09-11T13:59:34.044Z,99.80
2017-09-11T14:02:01.592Z,98.40
2017-09-11T14:04:29.193Z,99.90
2017-09-11T14:06:56.742Z,98.00
2017-09-11T14:09:24.937Z,97.50
2017-09-11T14:11:52.524Z,97.70
2017-09-11T14:14:20.105Z,98.90
2017-09-11T14:16:47.773Z,97.30
2017-09-11T14:19:15.415Z,97.80
2017-09-11T14:21:43.007Z,98.20
2017-09-11T14:24:10.556Z,98.10
2017-09-11T14:26:39.353Z,97.30
2017-09-11T14:29:07.044Z,97.10
2017-09-11T14:31:34.669Z,97.20
2017-09-11T14:34:02.349Z,96.90
2017-09-11T14:36:30.015Z,96.10
2017-09-11T14:38:57.672Z,96.40
2017-09-11T14:41:25.298Z,96.90
2017-09-11T14:43:52.935Z,95.70
2017-09-11T14:46:20.519Z,95.80
2017-09-11T14:48:48.103Z,94.90
2017-09-11T14:51:15.687Z,95.40
2017-09-11T14:53:43.311Z,94.70
2017-09-11T14:56:10.914Z,94.10
2017-09-11T14:58:38.541Z,94.10
2017-09-11T15:01:06.094Z,93.20
2017-09-11T15:03:33.698Z,93.50
2017-09-11T15:06:01.354Z,92.80
2017-09-11T15:08:28.913Z,92.90
2017-09-11T15:10:56.451Z,92.40
2017-09-11T15:13:23.997Z,92.60
2017-09-11T15:15:51.545Z,92.60
2017-09-11T15:18:19.125Z,93.00
2017-09-11T15:20:46.653Z,92.50
2017-09-11T15:23:14.963Z,93.40
2017-09-11T15:25:48.393Z,93.40
2017-09-11T15:28:16.014Z,92.70
2017-09-11T15:30:43.540Z,92.90
2017-09-11T15:33:11.104Z,92.60
2017-09-11T15:35:39.411Z,92.10
2017-09-11T15:38:06.961Z,92.10
2017-09-11T15:40:34.505Z,91.30
2017-09-11T15:43:02.837Z,92.70
2017-09-11T15:45:30.334Z,92.70
2017-09-11T15:47:57.852Z,91.90
2017-09-11T15:50:25.479Z,92.40
2017-09-11T15:52:53.776Z,93.00
2017-09-11T15:55:21.347Z,93.30
2017-09-11T15:57:48.890Z,92.60
2017-09-11T16:00:16.437Z,93.60
2017-09-11T16:02:44.723Z,93.20
2017-09-11T16:05:13.000Z,91.80
2017-09-11T16:07:42.913Z,92.10
2017-09-11T16:10:10.458Z,92.10
2017-09-11T16:12:38.745Z,92.20
2017-09-11T16:15:07.046Z,92.80
2017-09-11T16:17:34.554Z,92.80
2017-09-11T16:20:02.988Z,93.50
2017-09-11T16:22:30.498Z,93.40
2017-09-11T16:24:58.054Z,93.90
2017-09-11T16:27:28.011Z,93.80
2017-09-11T16:29:55.589Z,93.60
2017-09-11T16:32:23.106Z,93.90
2017-09-11T16:34:50.618Z,94.70
2017-09-11T16:37:18.124Z,94.60
2017-09-11T16:39:45.701Z,94.20
2017-09-11T16:42:13.264Z,95.50
2017-09-11T16:44:41.758Z,94.50
2017-09-11T16:47:09.294Z,95.20
2017-09-11T16:49:36.865Z,95.30
2017-09-11T16:52:05.155Z,95.20
2017-09-11T16:54:32.718Z,95.20
2017-09-11T16:57:00.246Z,95.30
2017-09-11T16:59:27.776Z,95.30
2017-09-11T17:01:55.296Z,95.30
2017-09-11T17:04:22.852Z,95.70
2017-09-11T17:06:50.369Z,96.30
2017-09-11T17:09:17.903Z,96.20
2017-09-11T17:11:45.427Z,96.70
2017-09-11T17:14:13.788Z,97.10
2017-09-11T17:16:42.121Z,97.10
2017-09-11T17:19:09.865Z,97.00
2017-09-11T17:21:38.809Z,97.50
2017-09-11T17:24:07.245Z,97.40
2017-09-11T17:26:34.887Z,97.40
2017-09-11T17:29:02.516Z,97.30
2017-09-11T17:31:30.789Z,98.00
2017-09-11T17:33:58.418Z,98.40
2017-09-11T17:36:26.022Z,98.20
2017-09-11T17:38:55.134Z,98.20
2017-09-11T17:41:22.723Z,98.20
2017-09-11T17:43:50.298Z,97.60
2017-09-11T17:46:17.936Z,98.20
2017-09-11T17:48:45.470Z,97.80
2017-09-11T17:51:13.858Z,98.20
2017-09-11T17:53:42.781Z,97.90
2017-09-11T17:56:10.430Z,97.90
2017-09-11T17:58:37.994Z,98.00
2017-09-11T18:01:05.634Z,98.90
2017-09-11T18:03:33.947Z,98.10
2017-09-11T18:06:01.569Z,98.10
2017-09-11T18:08:29.893Z,98.40
2017-09-11T18:10:58.231Z,98.40
2017-09-11T18:13:26.025Z,98.40
2017-09-11T18:15:53.654Z,98.40
2017-09-11T18:18:22.339Z,98.50
2017-09-11T18:20:56.246Z,98.40
2017-09-11T18:23:27.214Z,98.50
2017-09-11T18:26:02.477Z,98.30
2017-09-11T18:28:34.271Z,98.30
2017-09-11T18:31:11.849Z,98.60
2017-09-11T18:33:50.838Z,98.00
2017-09-11T18:39:02.685Z,98.30
2017-09-11T18:41:31.451Z,98.00
2017-09-11T18:43:59.113Z,97.50
2017-09-11T18:46:26.634Z,97.10
2017-09-11T18:48:54.181Z,97.40
2017-09-11T18:51:21.685Z,97.40
2017-09-11T18:53:49.982Z,96.90
2017-09-11T18:56:17.483Z,96.90
2017-09-11T18:58:45.008Z,97.60
2017-09-11T19:01:12.521Z,97.30
2017-09-11T19:03:40.037Z,97.90
2017-09-11T19:06:07.550Z,98.50
2017-09-11T19:08:35.845Z,97.60
2017-09-11T19:11:03.368Z,97.60
2017-09-11T19:13:30.904Z,98.10
2017-09-11T19:15:58.404Z,97.60
2017-09-11T19:18:25.953Z,97.80
2017-09-11T19:20:53.466Z,98.00
2017-09-11T19:23:21.027Z,98.00
2017-09-11T19:25:48.580Z,97.50
2017-09-11T19:28:16.145Z,97.90
2017-09-11T19:30:43.697Z,97.50
2017-09-11T19:33:11.255Z,97.80
2017-09-11T19:35:38.812Z,97.80
2017-09-11T19:38:06.401Z,98.40
2017-09-11T19:40:33.932Z,97.90
2017-09-11T19:43:01.494Z,98.60
2017-09-11T19:45:29.019Z,98.00
2017-09-11T19:47:57.348Z,99.20
2017-09-11T19:50:24.892Z,99.10
2017-09-11T19:52:52.432Z,99.30
2017-09-11T19:55:19.984Z,99.20
2017-09-11T19:57:47.553Z,99.20
2017-09-11T20:00:15.119Z,99.00
2017-09-11T20:02:42.707Z,99.10
2017-09-11T20:05:10.245Z,99.50
2017-09-11T20:07:37.804Z,99.10
2017-09-11T20:10:05.350Z,99.70
2017-09-11T20:12:35.386Z,99.90
2017-09-11T20:15:02.970Z,99.80
2017-09-11T20:17:30.523Z,99.50
2017-09-11T20:19:58.093Z,99.40
2017-09-11T20:22:25.689Z,99.50
2017-09-11T20:24:53.243Z,99.90
2017-09-11T20:27:20.801Z,99.50
2017-09-11T20:29:48.337Z,99.50
2017-09-11T20:32:15.891Z,99.60
2017-09-11T20:34:43.463Z,99.90
2017-09-11T20:37:11.000Z,99.90
2017-09-11T20:39:39.317Z,99.90
2017-09-11T20:42:06.878Z,99.90
2017-09-11T20:44:34.500Z,99.90
2017-09-11T20:47:02.046Z,99.70
2017-09-11T20:49:29.629Z,99.40
2017-09-11T20:51:57.139Z,99.50
2017-09-11T20:54:24.682Z,99.70
2017-09-11T20:56:52.196Z,99.90
2017-09-11T20:59:19.730Z,99.90
2017-09-11T21:01:48.020Z,99.90
2017-09-11T21:04:15.566Z,99.90
2017-09-11T21:06:43.097Z,99.90
2017-09-11T21:09:10.666Z,99.90
2017-09-11T21:11:38.179Z,99.90
2017-09-11T21:14:05.712Z,99.90
2017-09-11T21:16:33.989Z,99.90
2017-09-11T21:19:02.314Z,99.90
2017-09-11T21:21:29.842Z,99.90
2017-09-11T21:23:57.393Z,99.90
2017-09-11T21:26:24.928Z,99.90
2017-09-11T21:28:52.479Z,99.90
2017-09-11T21:31:19.987Z,99.90
2017-09-11T21:33:47.509Z,99.90
2017-09-11T21:36:15.012Z,99.90
2017-09-11T21:38:42.541Z,99.90
2017-09-11T21:41:10.042Z,99.90
2017-09-11T21:43:37.569Z,99.90
2017-09-11T21:46:05.845Z,99.90
2017-09-11T21:48:34.150Z,99.90
2017-09-11T21:51:01.664Z,99.90
2017-09-11T21:53:29.194Z,99.90
2017-09-11T21:55:56.692Z,99.90
2017-09-11T21:58:24.981Z,99.90
2017-09-11T22:00:53.245Z,99.90
2017-09-11T22:03:20.765Z,99.90
2017-09-11T22:05:48.293Z,99.90
2017-09-11T22:08:15.821Z,99.90
2017-09-11T22:10:43.339Z,99.90
2017-09-11T22:13:10.952Z,99.90
2017-09-11T22:15:39.267Z,99.90
2017-09-11T22:18:06.805Z,99.90
2017-09-11T22:20:35.082Z,99.90
2017-09-11T22:23:03.372Z,99.90
2017-09-11T22:25:30.868Z,99.90
2017-09-11T22:27:58.393Z,99.90
2017-09-11T22:30:25.892Z,99.90
2017-09-11T22:32:54.228Z,99.90
2017-09-11T22:35:21.738Z,99.90
2017-09-11T22:37:49.261Z,99.90
2017-09-11T22:40:17.528Z,99.90
2017-09-11T22:42:45.056Z,99.90
2017-09-11T22:45:13.335Z,99.90
2017-09-11T22:47:41.628Z,99.90
2017-09-11T22:50:09.133Z,99.90
2017-09-11T22:52:36.666Z,99.80
2017-09-11T22:55:04.181Z,99.90
2017-09-11T22:57:31.709Z,99.90
2017-09-11T22:59:59.209Z,99.90
2017-09-11T23:02:27.489Z,99.90
2017-09-11T23:04:55.765Z,99.90
2017-09-11T23:07:24.057Z,99.90
2017-09-11T23:09:52.321Z,99.90
2017-09-11T23:12:20.603Z,99.90
2017-09-11T23:14:48.885Z,99.90
2017-09-11T23:17:17.189Z,99.90
2017-09-11T23:19:45.452Z,99.90
2017-09-11T23:22:12.980Z,99.90
2017-09-11T23:24:40.484Z,99.90
2017-09-11T23:27:08.780Z,99.90
2017-09-11T23:29:36.285Z,99.90
2017-09-11T23:32:04.553Z,99.70
2017-09-11T23:34:32.072Z,99.60
2017-09-11T23:36:59.592Z,99.40
2017-09-11T23:39:27.131Z,99.30
2017-09-11T23:41:55.412Z,99.00
2017-09-11T23:44:22.945Z,99.00
2017-09-11T23:46:50.448Z,99.10
2017-09-11T23:49:18.740Z,99.50
2017-09-11T23:51:46.236Z,99.50
2017-09-11T23:54:13.778Z,99.30
2017-09-11T23:56:41.281Z,99.50
2017-09-11T23:59:08.800Z,99.50
